sensor_id;sensor_type;location;lat;lon;timestamp;P1;durP1;ratioP1;P2;durP2;ratioP2
17424;SDS011;8830;50.978;5.058;2023-06-10T04:45:51;9.50;;;8.65;;
17424;SDS011;8830;50.978;5.058;2023-06-10T04:48:44;10.13;;;9.25;;
17424;SDS011;8830;50.978;5.058;2023-06-10T04:51:25;8.90;;;8.30;;
17424;SDS011;8830;50.978;5.058;2023-06-10T04:54:10;9.52;;;8.18;;
17424;SDS011;8830;50.978;5.058;2023-06-10T04:56:52;8.00;;;7.50;;
17424;SDS011;8830;50.978;5.058;2023-06-10T04:59:20;19.45;;;8.10;;
17424;SDS011;8830;50.978;5.058;2023-06-10T05:01:56;8.25;;;7.63;;
17424;SDS011;8830;50.978;5.058;2023-06-10T05:04:26;10.10;;;7.53;;
17424;SDS011;8830;50.978;5.058;2023-06-10T05:07:07;8.13;;;7.32;;
17424;SDS011;8830;50.978;5.058;2023-06-10T05:09:36;8.13;;;7.47;;
17424;SDS011;8830;50.978;5.058;2023-06-10T05:12:04;8.18;;;7.63;;
17424;SDS011;8830;50.978;5.058;2023-06-10T05:14:41;9.15;;;7.57;;
17424;SDS011;8830;50.978;5.058;2023-06-10T05:17:12;7.35;;;6.93;;
17424;SDS011;8830;50.978;5.058;2023-06-10T05:19:41;8.52;;;7.72;;
17424;SDS011;8830;50.978;5.058;2023-06-10T05:22:12;12.57;;;8.15;;
17424;SDS011;8830;50.978;5.058;2023-06-10T05:24:42;7.85;;;7.25;;
17424;SDS011;8830;50.978;5.058;2023-06-10T05:27:14;7.82;;;7.22;;
17424;SDS011;8830;50.978;5.058;2023-06-10T05:29:41;8.35;;;7.35;;
17424;SDS011;8830;50.978;5.058;2023-06-10T05:35:05;8.40;;;7.65;;
17424;SDS011;8830;50.978;5.058;2023-06-10T05:37:47;8.10;;;7.60;;
17424;SDS011;8830;50.978;5.058;2023-06-10T05:40:29;7.15;;;6.60;;
17424;SDS011;8830;50.978;5.058;2023-06-10T05:42:56;8.05;;;7.55;;
17424;SDS011;8830;50.978;5.058;2023-06-10T05:45:38;8.25;;;7.45;;
17424;SDS011;8830;50.978;5.058;2023-06-10T05:51:04;8.82;;;7.07;;
17424;SDS011;8830;50.978;5.058;2023-06-10T05:53:32;8.27;;;7.63;;
17424;SDS011;8830;50.978;5.058;2023-06-10T05:56:07;7.88;;;7.28;;
17424;SDS011;8830;50.978;5.058;2023-06-10T05:58:35;7.72;;;7.07;;
17424;SDS011;8830;50.978;5.058;2023-06-10T06:01:03;8.38;;;7.70;;
17424;SDS011;8830;50.978;5.058;2023-06-10T06:06:29;7.85;;;7.05;;
17424;SDS011;8830;50.978;5.058;2023-06-10T06:08:56;8.05;;;7.45;;
17424;SDS011;8830;50.978;5.058;2023-06-10T06:11:24;8.32;;;7.53;;
17424;SDS011;8830;50.978;5.058;2023-06-10T06:13:53;7.25;;;6.65;;
17424;SDS011;8830;50.978;5.058;2023-06-10T06:16:34;7.25;;;6.55;;
17424;SDS011;8830;50.978;5.058;2023-06-10T06:19:04;8.00;;;7.38;;
17424;SDS011;8830;50.978;5.058;2023-06-10T06:21:31;9.02;;;6.93;;
17424;SDS011;8830;50.978;5.058;2023-06-10T06:24:00;9.82;;;7.35;;
17424;SDS011;8830;50.978;5.058;2023-06-10T06:26:27;7.57;;;6.70;;
17424;SDS011;8830;50.978;5.058;2023-06-10T06:28:58;7.15;;;6.45;;
17424;SDS011;8830;50.978;5.058;2023-06-10T06:31:27;7.40;;;6.90;;
17424;SDS011;8830;50.978;5.058;2023-06-10T06:33:58;7.13;;;6.55;;
17424;SDS011;8830;50.978;5.058;2023-06-10T06:36:30;7.10;;;6.60;;
17424;SDS011;8830;50.978;5.058;2023-06-10T06:39:01;7.57;;;6.65;;
17424;SDS011;8830;50.978;5.058;2023-06-10T06:41:34;7.72;;;6.93;;
17424;SDS011;8830;50.978;5.058;2023-06-10T06:44:02;7.65;;;6.90;;
17424;SDS011;8830;50.978;5.058;2023-06-10T06:46:30;7.68;;;6.65;;
17424;SDS011;8830;50.978;5.058;2023-06-10T06:48:58;7.53;;;6.53;;
17424;SDS011;8830;50.978;5.058;2023-06-10T06:51:26;7.38;;;6.82;;
17424;SDS011;8830;50.978;5.058;2023-06-10T06:53:57;7.07;;;6.57;;
17424;SDS011;8830;50.978;5.058;2023-06-10T06:56:35;7.32;;;6.68;;
17424;SDS011;8830;50.978;5.058;2023-06-10T06:59:05;6.95;;;6.35;;
17424;SDS011;8830;50.978;5.058;2023-06-10T07:01:32;7.68;;;7.07;;
17424;SDS011;8830;50.978;5.058;2023-06-10T07:04:02;7.28;;;6.63;;
17424;SDS011;8830;50.978;5.058;2023-06-10T07:06:33;7.95;;;7.22;;
17424;SDS011;8830;50.978;5.058;2023-06-10T07:09:01;6.40;;;6.03;;
17424;SDS011;8830;50.978;5.058;2023-06-10T07:11:31;6.82;;;6.43;;
17424;SDS011;8830;50.978;5.058;2023-06-10T07:14:36;6.70;;;6.20;;
17424;SDS011;8830;50.978;5.058;2023-06-10T07:17:41;7.78;;;6.97;;
17424;SDS011;8830;50.978;5.058;2023-06-10T07:20:46;7.50;;;6.70;;
17424;SDS011;8830;50.978;5.058;2023-06-10T07:26:41;7.90;;;7.07;;
17424;SDS011;8830;50.978;5.058;2023-06-10T07:33:02;7.90;;;6.82;;
17424;SDS011;8830;50.978;5.058;2023-06-10T07:35:48;7.18;;;6.47;;
17424;SDS011;8830;50.978;5.058;2023-06-10T07:38:35;6.88;;;6.32;;
17424;SDS011;8830;50.978;5.058;2023-06-10T07:41:13;6.82;;;6.43;;
17424;SDS011;8830;50.978;5.058;2023-06-10T07:43:43;8.70;;;6.40;;
17424;SDS011;8830;50.978;5.058;2023-06-10T07:46:11;7.32;;;6.80;;
17424;SDS011;8830;50.978;5.058;2023-06-10T07:48:38;6.78;;;6.20;;
17424;SDS011;8830;50.978;5.058;2023-06-10T07:51:05;7.90;;;7.20;;
17424;SDS011;8830;50.978;5.058;2023-06-10T07:53:33;7.25;;;6.75;;
17424;SDS011;8830;50.978;5.058;2023-06-10T07:56:01;7.35;;;6.60;;
17424;SDS011;8830;50.978;5.058;2023-06-10T07:58:31;6.80;;;6.30;;
17424;SDS011;8830;50.978;5.058;2023-06-10T08:01:01;6.95;;;6.45;;
17424;SDS011;8830;50.978;5.058;2023-06-10T08:03:48;6.82;;;6.13;;
17424;SDS011;8830;50.978;5.058;2023-06-10T08:06:23;6.90;;;6.30;;
17424;SDS011;8830;50.978;5.058;2023-06-10T08:09:05;7.32;;;6.55;;
17424;SDS011;8830;50.978;5.058;2023-06-10T08:11:33;9.50;;;6.57;;
17424;SDS011;8830;50.978;5.058;2023-06-10T08:14:02;7.03;;;6.40;;
17424;SDS011;8830;50.978;5.058;2023-06-10T08:16:29;7.28;;;6.78;;
17424;SDS011;8830;50.978;5.058;2023-06-10T08:18:57;7.30;;;6.57;;
17424;SDS011;8830;50.978;5.058;2023-06-10T08:21:26;7.40;;;6.68;;
17424;SDS011;8830;50.978;5.058;2023-06-10T08:23:59;7.55;;;7.05;;
17424;SDS011;8830;50.978;5.058;2023-06-10T08:26:34;6.95;;;6.45;;
17424;SDS011;8830;50.978;5.058;2023-06-10T08:29:11;7.95;;;6.70;;
17424;SDS011;8830;50.978;5.058;2023-06-10T08:31:41;7.93;;;7.35;;
17424;SDS011;8830;50.978;5.058;2023-06-10T08:34:19;7.47;;;6.88;;
17424;SDS011;8830;50.978;5.058;2023-06-10T08:36:49;7.13;;;6.53;;
17424;SDS011;8830;50.978;5.058;2023-06-10T08:39:18;7.47;;;6.85;;
17424;SDS011;8830;50.978;5.058;2023-06-10T08:41:58;6.45;;;6.00;;
17424;SDS011;8830;50.978;5.058;2023-06-10T08:44:32;8.63;;;6.00;;
17424;SDS011;8830;50.978;5.058;2023-06-10T08:47:06;6.32;;;5.93;;
17424;SDS011;8830;50.978;5.058;2023-06-10T08:49:41;7.78;;;7.18;;
17424;SDS011;8830;50.978;5.058;2023-06-10T08:52:14;8.55;;;6.57;;
17424;SDS011;8830;50.978;5.058;2023-06-10T08:54:43;7.75;;;7.03;;
17424;SDS011;8830;50.978;5.058;2023-06-10T08:57:16;8.70;;;6.78;;
17424;SDS011;8830;50.978;5.058;2023-06-10T08:59:49;6.95;;;6.53;;
17424;SDS011;8830;50.978;5.058;2023-06-10T09:02:16;6.78;;;6.07;;
17424;SDS011;8830;50.978;5.058;2023-06-10T09:04:46;7.40;;;6.70;;
17424;SDS011;8830;50.978;5.058;2023-06-10T09:07:14;7.07;;;6.57;;
17424;SDS011;8830;50.978;5.058;2023-06-10T09:09:42;7.20;;;6.65;;
17424;SDS011;8830;50.978;5.058;2023-06-10T09:12:11;6.63;;;6.32;;
17424;SDS011;8830;50.978;5.058;2023-06-10T09:14:40;7.32;;;6.70;;
17424;SDS011;8830;50.978;5.058;2023-06-10T09:17:10;6.93;;;6.53;;
17424;SDS011;8830;50.978;5.058;2023-06-10T09:19:38;7.78;;;6.38;;
17424;SDS011;8830;50.978;5.058;2023-06-10T09:22:08;7.88;;;7.18;;
17424;SDS011;8830;50.978;5.058;2023-06-10T09:24:35;7.72;;;6.40;;
17424;SDS011;8830;50.978;5.058;2023-06-10T09:27:04;7.10;;;6.60;;
17424;SDS011;8830;50.978;5.058;2023-06-10T09:29:35;7.80;;;6.57;;
17424;SDS011;8830;50.978;5.058;2023-06-10T09:32:15;7.70;;;6.13;;
17424;SDS011;8830;50.978;5.058;2023-06-10T09:34:46;7.70;;;6.60;;
17424;SDS011;8830;50.978;5.058;2023-06-10T09:37:19;7.03;;;6.43;;
17424;SDS011;8830;50.978;5.058;2023-06-10T09:40:00;7.35;;;6.85;;
17424;SDS011;8830;50.978;5.058;2023-06-10T09:42:34;7.13;;;6.55;;
17424;SDS011;8830;50.978;5.058;2023-06-10T09:45:02;6.97;;;6.38;;
17424;SDS011;8830;50.978;5.058;2023-06-10T09:47:32;7.25;;;6.75;;
17424;SDS011;8830;50.978;5.058;2023-06-10T09:50:02;7.20;;;6.65;;
17424;SDS011;8830;50.978;5.058;2023-06-10T09:52:29;6.82;;;6.22;;
17424;SDS011;8830;50.978;5.058;2023-06-10T09:54:59;8.23;;;6.35;;
17424;SDS011;8830;50.978;5.058;2023-06-10T09:57:30;7.30;;;6.63;;
17424;SDS011;8830;50.978;5.058;2023-06-10T10:00:10;11.63;;;6.32;;
17424;SDS011;8830;50.978;5.058;2023-06-10T10:02:46;6.70;;;6.18;;
17424;SDS011;8830;50.978;5.058;2023-06-10T10:05:15;6.72;;;6.00;;
17424;SDS011;8830;50.978;5.058;2023-06-10T10:07:44;6.88;;;6.15;;
17424;SDS011;8830;50.978;5.058;2023-06-10T10:10:13;5.82;;;5.32;;
17424;SDS011;8830;50.978;5.058;2023-06-10T10:12:41;6.35;;;5.75;;
17424;SDS011;8830;50.978;5.058;2023-06-10T10:15:10;6.75;;;6.10;;
17424;SDS011;8830;50.978;5.058;2023-06-10T10:17:39;6.00;;;5.45;;
17424;SDS011;8830;50.978;5.058;2023-06-10T10:20:14;6.57;;;5.63;;
17424;SDS011;8830;50.978;5.058;2023-06-10T10:22:46;6.22;;;5.72;;
17424;SDS011;8830;50.978;5.058;2023-06-10T10:25:22;5.97;;;5.57;;
17424;SDS011;8830;50.978;5.058;2023-06-10T10:27:54;14.25;;;6.00;;
17424;SDS011;8830;50.978;5.058;2023-06-10T10:30:25;6.20;;;5.70;;
17424;SDS011;8830;50.978;5.058;2023-06-10T10:32:56;6.75;;;6.20;;
17424;SDS011;8830;50.978;5.058;2023-06-10T10:35:28;7.43;;;5.97;;
17424;SDS011;8830;50.978;5.058;2023-06-10T10:38:00;8.25;;;6.13;;
17424;SDS011;8830;50.978;5.058;2023-06-10T10:40:29;6.25;;;5.85;;
17424;SDS011;8830;50.978;5.058;2023-06-10T10:42:57;6.28;;;5.78;;
17424;SDS011;8830;50.978;5.058;2023-06-10T10:45:27;6.10;;;5.60;;
17424;SDS011;8830;50.978;5.058;2023-06-10T10:47:56;6.65;;;5.95;;
17424;SDS011;8830;50.978;5.058;2023-06-10T10:50:24;6.40;;;5.75;;
17424;SDS011;8830;50.978;5.058;2023-06-10T10:53:00;11.63;;;6.22;;
17424;SDS011;8830;50.978;5.058;2023-06-10T10:55:29;8.00;;;5.65;;
17424;SDS011;8830;50.978;5.058;2023-06-10T10:57:57;12.10;;;5.85;;
17424;SDS011;8830;50.978;5.058;2023-06-10T11:00:29;8.85;;;5.40;;
17424;SDS011;8830;50.978;5.058;2023-06-10T11:03:04;6.50;;;5.72;;
17424;SDS011;8830;50.978;5.058;2023-06-10T11:05:38;13.73;;;6.03;;
17424;SDS011;8830;50.978;5.058;2023-06-10T11:08:07;5.95;;;5.35;;
17424;SDS011;8830;50.978;5.058;2023-06-10T11:10:37;7.05;;;4.88;;
17424;SDS011;8830;50.978;5.058;2023-06-10T11:13:06;18.75;;;5.65;;
17424;SDS011;8830;50.978;5.058;2023-06-10T11:15:43;7.28;;;5.30;;
17424;SDS011;8830;50.978;5.058;2023-06-10T11:18:14;9.48;;;5.10;;
17424;SDS011;8830;50.978;5.058;2023-06-10T11:20:55;8.57;;;5.50;;
17424;SDS011;8830;50.978;5.058;2023-06-10T11:23:38;5.45;;;5.05;;
17424;SDS011;8830;50.978;5.058;2023-06-10T11:26:13;9.88;;;5.13;;
17424;SDS011;8830;50.978;5.058;2023-06-10T11:28:42;11.45;;;5.25;;
17424;SDS011;8830;50.978;5.058;2023-06-10T11:31:45;6.28;;;5.00;;
17424;SDS011;8830;50.978;5.058;2023-06-10T11:34:39;7.85;;;5.43;;
17424;SDS011;8830;50.978;5.058;2023-06-10T11:40:23;11.52;;;5.57;;
17424;SDS011;8830;50.978;5.058;2023-06-10T11:42:51;6.82;;;5.22;;
17424;SDS011;8830;50.978;5.058;2023-06-10T11:45:19;6.30;;;5.00;;
17424;SDS011;8830;50.978;5.058;2023-06-10T11:47:56;9.25;;;5.43;;
17424;SDS011;8830;50.978;5.058;2023-06-10T11:50:28;5.55;;;5.07;;
17424;SDS011;8830;50.978;5.058;2023-06-10T11:52:59;9.88;;;4.72;;
17424;SDS011;8830;50.978;5.058;2023-06-10T11:55:38;5.43;;;5.03;;
17424;SDS011;8830;50.978;5.058;2023-06-10T11:58:13;6.15;;;4.65;;
17424;SDS011;8830;50.978;5.058;2023-06-10T12:00:45;6.50;;;5.03;;
17424;SDS011;8830;50.978;5.058;2023-06-10T12:03:13;9.07;;;5.55;;
17424;SDS011;8830;50.978;5.058;2023-06-10T12:05:40;6.75;;;5.38;;
17424;SDS011;8830;50.978;5.058;2023-06-10T12:08:21;6.22;;;5.63;;
17424;SDS011;8830;50.978;5.058;2023-06-10T12:10:48;8.93;;;5.30;;
17424;SDS011;8830;50.978;5.058;2023-06-10T12:13:16;10.10;;;5.15;;
17424;SDS011;8830;50.978;5.058;2023-06-10T12:15:44;9.95;;;5.18;;
17424;SDS011;8830;50.978;5.058;2023-06-10T12:18:15;10.40;;;5.38;;
17424;SDS011;8830;50.978;5.058;2023-06-10T12:20:44;6.20;;;5.70;;
17424;SDS011;8830;50.978;5.058;2023-06-10T12:23:12;7.22;;;5.13;;
17424;SDS011;8830;50.978;5.058;2023-06-10T12:25:47;5.78;;;5.22;;
17424;SDS011;8830;50.978;5.058;2023-06-10T12:28:20;6.38;;;5.63;;
17424;SDS011;8830;50.978;5.058;2023-06-10T12:30:48;8.82;;;5.72;;
17424;SDS011;8830;50.978;5.058;2023-06-10T12:33:15;11.93;;;5.63;;
17424;SDS011;8830;50.978;5.058;2023-06-10T12:35:46;6.18;;;5.25;;
17424;SDS011;8830;50.978;5.058;2023-06-10T12:38:15;7.70;;;5.63;;
17424;SDS011;8830;50.978;5.058;2023-06-10T12:40:51;8.50;;;5.65;;
17424;SDS011;8830;50.978;5.058;2023-06-10T12:43:21;7.53;;;5.28;;
17424;SDS011;8830;50.978;5.058;2023-06-10T12:45:49;6.88;;;5.40;;
17424;SDS011;8830;50.978;5.058;2023-06-10T12:48:20;7.22;;;5.63;;
17424;SDS011;8830;50.978;5.058;2023-06-10T12:50:51;7.10;;;5.45;;
17424;SDS011;8830;50.978;5.058;2023-06-10T12:53:20;11.05;;;5.32;;
17424;SDS011;8830;50.978;5.058;2023-06-10T12:55:53;10.68;;;5.57;;
17424;SDS011;8830;50.978;5.058;2023-06-10T12:58:20;9.15;;;5.47;;
17424;SDS011;8830;50.978;5.058;2023-06-10T13:00:48;15.13;;;6.30;;
17424;SDS011;8830;50.978;5.058;2023-06-10T13:03:17;5.93;;;5.32;;
17424;SDS011;8830;50.978;5.058;2023-06-10T13:05:45;7.50;;;5.25;;
17424;SDS011;8830;50.978;5.058;2023-06-10T13:08:13;9.98;;;5.65;;
17424;SDS011;8830;50.978;5.058;2023-06-10T13:10:41;15.75;;;5.70;;
17424;SDS011;8830;50.978;5.058;2023-06-10T13:13:10;9.23;;;5.68;;
17424;SDS011;8830;50.978;5.058;2023-06-10T13:15:39;15.77;;;5.30;;
17424;SDS011;8830;50.978;5.058;2023-06-10T13:18:07;6.93;;;5.22;;
17424;SDS011;8830;50.978;5.058;2023-06-10T13:20:34;6.30;;;5.75;;
17424;SDS011;8830;50.978;5.058;2023-06-10T13:23:01;10.40;;;5.75;;
17424;SDS011;8830;50.978;5.058;2023-06-10T13:25:28;6.78;;;5.22;;
17424;SDS011;8830;50.978;5.058;2023-06-10T13:27:56;6.63;;;5.47;;
17424;SDS011;8830;50.978;5.058;2023-06-10T13:30:25;6.07;;;5.50;;
17424;SDS011;8830;50.978;5.058;2023-06-10T13:32:55;5.95;;;5.47;;
17424;SDS011;8830;50.978;5.058;2023-06-10T13:35:23;9.48;;;5.30;;
17424;SDS011;8830;50.978;5.058;2023-06-10T13:37:50;5.63;;;5.22;;
17424;SDS011;8830;50.978;5.058;2023-06-10T13:40:17;9.93;;;5.43;;
17424;SDS011;8830;50.978;5.058;2023-06-10T13:42:45;5.38;;;4.97;;
17424;SDS011;8830;50.978;5.058;2023-06-10T13:45:16;7.63;;;5.53;;
17424;SDS011;8830;50.978;5.058;2023-06-10T13:47:45;5.15;;;4.75;;
17424;SDS011;8830;50.978;5.058;2023-06-10T13:50:13;8.95;;;5.05;;
17424;SDS011;8830;50.978;5.058;2023-06-10T13:52:40;5.95;;;5.22;;
17424;SDS011;8830;50.978;5.058;2023-06-10T13:55:08;10.77;;;4.80;;
17424;SDS011;8830;50.978;5.058;2023-06-10T13:57:36;7.82;;;4.95;;
17424;SDS011;8830;50.978;5.058;2023-06-10T14:00:04;5.65;;;5.10;;
17424;SDS011;8830;50.978;5.058;2023-06-10T14:02:35;8.40;;;5.28;;
17424;SDS011;8830;50.978;5.058;2023-06-10T14:05:06;12.75;;;4.65;;
17424;SDS011;8830;50.978;5.058;2023-06-10T14:07:35;5.50;;;4.68;;
17424;SDS011;8830;50.978;5.058;2023-06-10T14:10:02;5.20;;;4.80;;
17424;SDS011;8830;50.978;5.058;2023-06-10T14:12:30;13.23;;;5.38;;
17424;SDS011;8830;50.978;5.058;2023-06-10T14:14:57;8.93;;;5.45;;
17424;SDS011;8830;50.978;5.058;2023-06-10T14:17:26;5.10;;;4.80;;
17424;SDS011;8830;50.978;5.058;2023-06-10T14:19:54;6.63;;;4.72;;
17424;SDS011;8830;50.978;5.058;2023-06-10T14:22:23;8.00;;;5.18;;
17424;SDS011;8830;50.978;5.058;2023-06-10T14:24:51;4.75;;;4.43;;
17424;SDS011;8830;50.978;5.058;2023-06-10T14:27:18;4.90;;;4.50;;
17424;SDS011;8830;50.978;5.058;2023-06-10T14:29:46;5.70;;;5.20;;
17424;SDS011;8830;50.978;5.058;2023-06-10T14:32:13;7.25;;;4.88;;
17424;SDS011;8830;50.978;5.058;2023-06-10T14:34:41;12.20;;;5.20;;
17424;SDS011;8830;50.978;5.058;2023-06-10T14:37:09;5.40;;;4.95;;
17424;SDS011;8830;50.978;5.058;2023-06-10T14:39:39;5.45;;;4.82;;
17424;SDS011;8830;50.978;5.058;2023-06-10T14:42:06;6.05;;;5.30;;
17424;SDS011;8830;50.978;5.058;2023-06-10T14:44:41;13.25;;;5.43;;
17424;SDS011;8830;50.978;5.058;2023-06-10T14:47:09;5.35;;;4.95;;
17424;SDS011;8830;50.978;5.058;2023-06-10T14:49:36;7.55;;;5.25;;
17424;SDS011;8830;50.978;5.058;2023-06-10T14:52:03;5.95;;;5.55;;
17424;SDS011;8830;50.978;5.058;2023-06-10T14:54:31;5.97;;;4.50;;
17424;SDS011;8830;50.978;5.058;2023-06-10T14:56:59;6.15;;;4.70;;
17424;SDS011;8830;50.978;5.058;2023-06-10T14:59:27;4.97;;;4.50;;
17424;SDS011;8830;50.978;5.058;2023-06-10T15:01:54;5.18;;;4.78;;
17424;SDS011;8830;50.978;5.058;2023-06-10T15:04:21;5.57;;;5.05;;
17424;SDS011;8830;50.978;5.058;2023-06-10T15:06:48;6.82;;;5.10;;
17424;SDS011;8830;50.978;5.058;2023-06-10T15:09:16;5.60;;;4.78;;
17424;SDS011;8830;50.978;5.058;2023-06-10T15:11:45;8.05;;;4.80;;
17424;SDS011;8830;50.978;5.058;2023-06-10T15:14:13;6.78;;;5.35;;
17424;SDS011;8830;50.978;5.058;2023-06-10T15:16:40;15.23;;;5.43;;
17424;SDS011;8830;50.978;5.058;2023-06-10T15:19:07;5.32;;;4.93;;
17424;SDS011;8830;50.978;5.058;2023-06-10T15:21:35;8.93;;;5.47;;
17424;SDS011;8830;50.978;5.058;2023-06-10T15:24:03;5.47;;;4.97;;
17424;SDS011;8830;50.978;5.058;2023-06-10T15:26:31;6.80;;;5.32;;
17424;SDS011;8830;50.978;5.058;2023-06-10T15:28:58;7.45;;;4.55;;
17424;SDS011;8830;50.978;5.058;2023-06-10T15:31:31;7.97;;;5.13;;
17424;SDS011;8830;50.978;5.058;2023-06-10T15:34:00;7.70;;;4.97;;
17424;SDS011;8830;50.978;5.058;2023-06-10T15:36:32;7.32;;;5.15;;
17424;SDS011;8830;50.978;5.058;2023-06-10T15:39:04;6.00;;;5.40;;
17424;SDS011;8830;50.978;5.058;2023-06-10T15:41:33;8.50;;;5.13;;
17424;SDS011;8830;50.978;5.058;2023-06-10T15:44:01;9.38;;;5.75;;
17424;SDS011;8830;50.978;5.058;2023-06-10T15:46:29;5.13;;;4.82;;
17424;SDS011;8830;50.978;5.058;2023-06-10T15:49:00;5.90;;;5.18;;
17424;SDS011;8830;50.978;5.058;2023-06-10T15:51:27;6.03;;;5.45;;
17424;SDS011;8830;50.978;5.058;2023-06-10T15:53:55;17.10;;;5.30;;
17424;SDS011;8830;50.978;5.058;2023-06-10T15:56:25;5.40;;;4.90;;
17424;SDS011;8830;50.978;5.058;2023-06-10T15:58:52;6.30;;;5.05;;
17424;SDS011;8830;50.978;5.058;2023-06-10T16:01:20;5.75;;;5.22;;
17424;SDS011;8830;50.978;5.058;2023-06-10T16:03:51;5.80;;;5.30;;
17424;SDS011;8830;50.978;5.058;2023-06-10T16:06:19;6.03;;;5.50;;
17424;SDS011;8830;50.978;5.058;2023-06-10T16:08:49;8.35;;;5.70;;
17424;SDS011;8830;50.978;5.058;2023-06-10T16:11:28;6.20;;;5.25;;
17424;SDS011;8830;50.978;5.058;2023-06-10T16:13:56;6.88;;;6.20;;
17424;SDS011;8830;50.978;5.058;2023-06-10T16:16:23;5.82;;;5.35;;
17424;SDS011;8830;50.978;5.058;2023-06-10T16:19:07;6.38;;;5.72;;
17424;SDS011;8830;50.978;5.058;2023-06-10T16:21:49;8.77;;;5.88;;
17424;SDS011;8830;50.978;5.058;2023-06-10T16:24:18;6.57;;;5.82;;
17424;SDS011;8830;50.978;5.058;2023-06-10T16:26:45;6.18;;;5.28;;
17424;SDS011;8830;50.978;5.058;2023-06-10T16:29:26;6.03;;;5.53;;
17424;SDS011;8830;50.978;5.058;2023-06-10T16:31:54;6.20;;;5.60;;
17424;SDS011;8830;50.978;5.058;2023-06-10T16:37:54;6.30;;;5.78;;
17424;SDS011;8830;50.978;5.058;2023-06-10T16:40:34;6.43;;;5.95;;
17424;SDS011;8830;50.978;5.058;2023-06-10T16:43:10;6.28;;;5.88;;
17424;SDS011;8830;50.978;5.058;2023-06-10T16:45:51;8.00;;;5.70;;
17424;SDS011;8830;50.978;5.058;2023-06-10T16:48:33;6.30;;;5.75;;
17424;SDS011;8830;50.978;5.058;2023-06-10T16:51:30;11.32;;;5.70;;
17424;SDS011;8830;50.978;5.058;2023-06-10T16:57:07;7.40;;;6.80;;
17424;SDS011;8830;50.978;5.058;2023-06-10T16:59:39;6.20;;;5.72;;
17424;SDS011;8830;50.978;5.058;2023-06-10T17:02:20;9.07;;;6.13;;
17424;SDS011;8830;50.978;5.058;2023-06-10T17:05:06;6.65;;;6.03;;
17424;SDS011;8830;50.978;5.058;2023-06-10T17:07:47;6.03;;;5.53;;
17424;SDS011;8830;50.978;5.058;2023-06-10T17:10:34;6.47;;;5.72;;
17424;SDS011;8830;50.978;5.058;2023-06-10T17:13:47;6.25;;;5.75;;
17424;SDS011;8830;50.978;5.058;2023-06-10T17:16:16;6.22;;;5.70;;
17424;SDS011;8830;50.978;5.058;2023-06-10T17:19:17;8.80;;;5.72;;
17424;SDS011;8830;50.978;5.058;2023-06-10T17:22:15;6.05;;;5.55;;
17424;SDS011;8830;50.978;5.058;2023-06-10T17:24:45;6.03;;;5.55;;
17424;SDS011;8830;50.978;5.058;2023-06-10T17:27:27;6.22;;;5.70;;
17424;SDS011;8830;50.978;5.058;2023-06-10T17:32:54;6.70;;;5.82;;
17424;SDS011;8830;50.978;5.058;2023-06-10T17:35:46;6.10;;;5.55;;
17424;SDS011;8830;50.978;5.058;2023-06-10T17:38:27;6.38;;;5.78;;
17424;SDS011;8830;50.978;5.058;2023-06-10T17:41:09;6.78;;;5.53;;
17424;SDS011;8830;50.978;5.058;2023-06-10T17:43:37;7.07;;;5.75;;
17424;SDS011;8830;50.978;5.058;2023-06-10T17:46:12;6.95;;;5.55;;
17424;SDS011;8830;50.978;5.058;2023-06-10T17:48:53;6.00;;;5.50;;
17424;SDS011;8830;50.978;5.058;2023-06-10T17:51:29;6.82;;;5.93;;
17424;SDS011;8830;50.978;5.058;2023-06-10T17:54:15;6.63;;;5.95;;
17424;SDS011;8830;50.978;5.058;2023-06-10T17:56:56;7.93;;;6.05;;
17424;SDS011;8830;50.978;5.058;2023-06-10T17:59:26;6.82;;;6.22;;
17424;SDS011;8830;50.978;5.058;2023-06-10T18:07:53;8.00;;;5.72;;
17424;SDS011;8830;50.978;5.058;2023-06-10T18:10:55;6.20;;;5.60;;
17424;SDS011;8830;50.978;5.058;2023-06-10T18:13:24;7.63;;;6.25;;
17424;SDS011;8830;50.978;5.058;2023-06-10T18:15:55;6.40;;;5.68;;
17424;SDS011;8830;50.978;5.058;2023-06-10T18:18:25;6.75;;;5.72;;
17424;SDS011;8830;50.978;5.058;2023-06-10T18:21:01;6.60;;;6.00;;
17424;SDS011;8830;50.978;5.058;2023-06-10T18:23:38;6.75;;;6.22;;
17424;SDS011;8830;50.978;5.058;2023-06-10T18:26:23;6.40;;;5.90;;
17424;SDS011;8830;50.978;5.058;2023-06-10T18:29:04;7.30;;;5.90;;
17424;SDS011;8830;50.978;5.058;2023-06-10T18:31:46;7.07;;;5.50;;
17424;SDS011;8830;50.978;5.058;2023-06-10T18:34:29;6.05;;;5.55;;
17424;SDS011;8830;50.978;5.058;2023-06-10T18:46:37;8.02;;;6.05;;
17424;SDS011;8830;50.978;5.058;2023-06-10T18:49:13;6.65;;;6.10;;
17424;SDS011;8830;50.978;5.058;2023-06-10T18:51:57;6.07;;;5.47;;
17424;SDS011;8830;50.978;5.058;2023-06-10T18:54:29;10.60;;;6.22;;
17424;SDS011;8830;50.978;5.058;2023-06-10T18:57:11;6.20;;;5.80;;
17424;SDS011;8830;50.978;5.058;2023-06-10T18:59:52;7.13;;;6.43;;
17424;SDS011;8830;50.978;5.058;2023-06-10T19:02:45;7.95;;;5.80;;
17424;SDS011;8830;50.978;5.058;2023-06-10T19:05:15;7.20;;;6.47;;
17424;SDS011;8830;50.978;5.058;2023-06-10T19:07:44;5.80;;;5.32;;
17424;SDS011;8830;50.978;5.058;2023-06-10T19:10:25;6.88;;;6.18;;
17424;SDS011;8830;50.978;5.058;2023-06-10T19:13:08;7.53;;;5.88;;
17424;SDS011;8830;50.978;5.058;2023-06-10T19:15:50;6.35;;;5.85;;
17424;SDS011;8830;50.978;5.058;2023-06-10T20:23:49;6.90;;;6.40;;
17424;SDS011;8830;50.978;5.058;2023-06-10T20:26:34;6.65;;;6.00;;
17424;SDS011;8830;50.978;5.058;2023-06-10T20:29:15;6.82;;;6.28;;
17424;SDS011;8830;50.978;5.058;2023-06-10T20:31:57;10.10;;;6.45;;
17424;SDS011;8830;50.978;5.058;2023-06-10T20:34:42;8.00;;;6.30;;
17424;SDS011;8830;50.978;5.058;2023-06-10T20:37:24;6.82;;;6.03;;
17424;SDS011;8830;50.978;5.058;2023-06-10T20:50:00;7.05;;;6.40;;
17424;SDS011;8830;50.978;5.058;2023-06-10T20:52:44;7.18;;;6.43;;
17424;SDS011;8830;50.978;5.058;2023-06-10T20:55:33;11.82;;;6.80;;
17424;SDS011;8830;50.978;5.058;2023-06-10T20:58:14;7.05;;;6.35;;
17424;SDS011;8830;50.978;5.058;2023-06-10T21:00:58;7.40;;;6.28;;
17424;SDS011;8830;50.978;5.058;2023-06-10T21:04:04;12.85;;;6.60;;
17424;SDS011;8830;50.978;5.058;2023-06-10T21:16:22;12.23;;;6.75;;
17424;SDS011;8830;50.978;5.058;2023-06-10T21:19:03;8.40;;;6.45;;
17424;SDS011;8830;50.978;5.058;2023-06-10T21:21:44;7.00;;;6.30;;
17424;SDS011;8830;50.978;5.058;2023-06-10T21:24:29;7.03;;;6.43;;
17424;SDS011;8830;50.978;5.058;2023-06-10T21:27:10;7.10;;;6.35;;
17424;SDS011;8830;50.978;5.058;2023-06-10T21:29:51;7.82;;;7.07;;
17424;SDS011;8830;50.978;5.058;2023-06-10T22:14:03;6.30;;;5.70;;
17424;SDS011;8830;50.978;5.058;2023-06-10T22:16:46;6.70;;;6.20;;
17424;SDS011;8830;50.978;5.058;2023-06-10T22:19:28;9.20;;;6.57;;
17424;SDS011;8830;50.978;5.058;2023-06-10T22:22:10;6.78;;;6.18;;
17424;SDS011;8830;50.978;5.058;2023-06-10T22:25:11;7.15;;;6.32;;
